aviador You're here:

KCOE Decoded Metar

COEUR D'ALENE in ID, USA
Report Time2017-09-24 22:56:00
UTC Time2017-09-24 23:09:08
Flight Rules vfr VFR
Wind210° at 07 kt
W.Decomp.*RWY 20: 6.9 kt HW 1.1 kt LCW
RWY 24: 4.6 kt HW 5.3 kt LCW
W.Rank210° ranks 17
Current wind is below 210° avg. (7.3)
Visibility9999 m
Phenomena:N/A
Clouds:Overcast 075 Hf
Expected CloudBase > 6,000 ft AGL from Temp-Dew spread
Ceiling7,500 ft
Temp19°C (ISA +9)
Dew Point04°C (37% RH)
AAT15.2°C
QNH1018 hPa
Density Alt3,271 ft
Elevation2,320 ft
Report Wrong Elevation
Raw Report
KCOE 242256Z AUTO 21007KT 10SM OVC075 19/04 A3006 RMK AO2 SLP192
T01890039=

Extra information for KCOE:More info

Metar Taf Metar & Taf Last 4 Metars F.Rules Stats Wind Profile Meteogram Temp Stats Airport Information Weather charts Add Link Nearby VenuesMetar ALERT Operation Metar Decoded Social comments

AIRNAV info for KCOE